createdAt,value
2023-10-30T00:01:04.680Z,11.22
2023-10-30T00:06:08.249Z,11.22
2023-10-30T00:11:10.413Z,11.21
2023-10-30T00:16:12.788Z,11.18
2023-10-30T00:21:15.308Z,11.12
2023-10-30T00:26:17.809Z,11.07
2023-10-30T00:31:21.445Z,11.02
2023-10-30T00:36:23.996Z,11.01
2023-10-30T00:41:26.936Z,11.03
2023-10-30T00:47:04.359Z,11.05
2023-10-30T00:52:06.741Z,11.09
2023-10-30T00:57:08.846Z,11.13
2023-10-30T01:02:10.825Z,11.17
2023-10-30T01:07:13.243Z,11.19
2023-10-30T01:13:10.084Z,11.23
2023-10-30T01:18:13.206Z,11.28
2023-10-30T01:23:18.380Z,11.24
2023-10-30T01:28:20.505Z,11.13
2023-10-30T01:33:24.531Z,11.06
2023-10-30T01:38:26.985Z,11.07
2023-10-30T01:43:33.712Z,11.12
2023-10-30T01:48:36.648Z,11.18
2023-10-30T01:53:39.742Z,11.25
2023-10-30T01:58:42.326Z,11.27
2023-10-30T02:03:44.648Z,11.24
2023-10-30T02:08:46.888Z,11.25
2023-10-30T02:13:57.464Z,11.22
2023-10-30T02:18:59.568Z,11.20
2023-10-30T02:24:12.337Z,11.19
2023-10-30T02:29:34.896Z,11.19
2023-10-30T02:34:36.898Z,11.20
2023-10-30T02:39:39.158Z,11.25
2023-10-30T02:44:42.039Z,11.29
2023-10-30T02:49:44.844Z,11.32
2023-10-30T02:54:47.145Z,11.30
2023-10-30T02:59:49.456Z,11.25
2023-10-30T03:04:52.133Z,11.23
2023-10-30T03:09:54.296Z,11.18
2023-10-30T03:14:56.426Z,11.08
2023-10-30T03:19:59.824Z,11.02
2023-10-30T03:25:02.090Z,10.99
2023-10-30T03:30:05.040Z,10.92
2023-10-30T03:35:08.599Z,10.85
2023-10-30T03:40:11.409Z,10.84
2023-10-30T03:45:13.834Z,10.85
2023-10-30T03:50:18.180Z,10.73
2023-10-30T03:55:20.351Z,10.55
2023-10-30T04:00:22.432Z,10.42
2023-10-30T04:05:24.627Z,10.29
2023-10-30T04:10:27.145Z,10.32
2023-10-30T04:15:29.430Z,10.21
2023-10-30T04:20:31.742Z,10.01
2023-10-30T04:25:33.959Z,9.98
2023-10-30T04:30:36.921Z,10.06
2023-10-30T04:35:39.594Z,10.14
2023-10-30T04:40:42.252Z,10.17
2023-10-30T04:45:44.395Z,10.25
2023-10-30T04:50:46.760Z,10.34
2023-10-30T04:55:52.811Z,10.40
2023-10-30T05:00:55.072Z,10.40
2023-10-30T05:06:17.533Z,10.38
2023-10-30T05:11:19.917Z,10.36
2023-10-30T05:16:22.735Z,10.31
2023-10-30T05:21:25.122Z,10.31
2023-10-30T05:26:27.800Z,10.36
2023-10-30T05:31:30.158Z,10.47
2023-10-30T05:36:32.633Z,10.63
2023-10-30T05:41:35.108Z,10.79
2023-10-30T05:46:37.501Z,10.97
2023-10-30T05:51:39.754Z,11.34
2023-10-30T05:56:41.928Z,11.41
2023-10-30T06:01:44.520Z,11.50
2023-10-30T06:06:47.540Z,11.64
2023-10-30T06:11:50.289Z,11.74
2023-10-30T06:16:52.327Z,11.84
2023-10-30T06:21:55.040Z,11.97
2023-10-30T06:26:57.351Z,12.16
2023-10-30T06:31:59.907Z,12.39
2023-10-30T06:37:03.097Z,12.94
2023-10-30T06:42:06.526Z,13.73
2023-10-30T06:47:08.591Z,14.30
2023-10-30T06:52:11.115Z,14.94
2023-10-30T06:57:13.528Z,15.71
2023-10-30T07:02:15.728Z,16.16
2023-10-30T07:07:17.952Z,16.48
2023-10-30T07:12:20.232Z,16.94
2023-10-30T07:17:22.462Z,17.54
2023-10-30T07:22:25.299Z,18.01
2023-10-30T07:27:27.766Z,18.18
2023-10-30T07:32:30.396Z,17.88
2023-10-30T07:37:34.809Z,17.86
2023-10-30T07:42:38.993Z,17.91
2023-10-30T07:47:44.226Z,17.90
2023-10-30T07:52:47.300Z,18.01
2023-10-30T07:57:49.592Z,17.89
2023-10-30T08:02:52.115Z,17.83
2023-10-30T08:07:54.463Z,18.00
2023-10-30T08:12:56.899Z,18.03
2023-10-30T08:17:59.195Z,17.99
2023-10-30T08:23:01.757Z,17.81
2023-10-30T08:28:04.257Z,17.63
2023-10-30T08:33:06.558Z,17.48
2023-10-30T08:38:08.769Z,17.35
2023-10-30T08:43:10.992Z,17.30
2023-10-30T08:48:19.426Z,17.14
2023-10-30T08:53:22.672Z,16.94
2023-10-30T08:58:24.932Z,16.77
2023-10-30T09:03:27.109Z,16.63
2023-10-30T09:08:29.264Z,16.47
2023-10-30T09:13:32.409Z,16.30
2023-10-30T09:18:34.511Z,16.24
2023-10-30T09:23:36.691Z,16.15
2023-10-30T09:28:39.074Z,16.10
2023-10-30T09:33:41.392Z,16.07
2023-10-30T09:38:43.795Z,16.04
2023-10-30T09:43:53.305Z,16.08
2023-10-30T09:48:57.640Z,16.12
2023-10-30T09:54:01.592Z,16.19
2023-10-30T09:59:04.372Z,16.24
2023-10-30T10:04:06.854Z,16.30
2023-10-30T10:09:09.094Z,16.37
2023-10-30T10:14:12.954Z,16.38
2023-10-30T10:19:22.296Z,16.50
2023-10-30T10:24:29.629Z,16.69
2023-10-30T10:29:33.554Z,16.85
2023-10-30T10:34:35.972Z,16.98
2023-10-30T10:39:58.549Z,17.15
2023-10-30T10:45:00.914Z,17.51
2023-10-30T10:50:04.538Z,18.07
2023-10-30T10:55:07.389Z,18.56
2023-10-30T11:00:13.523Z,18.90
2023-10-30T11:05:17.020Z,19.24
2023-10-30T11:10:26.076Z,19.44
2023-10-30T11:15:34.194Z,19.63
2023-10-30T11:20:36.213Z,19.74
2023-10-30T11:25:40.333Z,19.84
2023-10-30T11:30:44.364Z,19.92
2023-10-30T11:35:47.930Z,20.04
2023-10-30T11:41:05.821Z,20.10
2023-10-30T11:46:08.042Z,20.24
2023-10-30T11:51:10.593Z,20.36
2023-10-30T11:56:14.829Z,20.55
2023-10-30T12:01:18.073Z,20.48
2023-10-30T12:06:20.418Z,20.35
2023-10-30T12:11:23.953Z,20.37
2023-10-30T12:16:27.657Z,20.55
2023-10-30T12:21:31.510Z,20.60
2023-10-30T12:26:40.607Z,20.54
2023-10-30T12:31:43.208Z,20.61
2023-10-30T12:36:45.982Z,20.64
2023-10-30T12:41:55.379Z,20.65
2023-10-30T12:46:57.778Z,20.72
2023-10-30T12:52:00.168Z,20.79
2023-10-30T12:57:02.544Z,20.73
2023-10-30T13:02:07.178Z,20.71
2023-10-30T13:07:09.635Z,20.40
2023-10-30T13:12:11.731Z,20.18
2023-10-30T13:17:14.048Z,20.00
2023-10-30T13:22:16.350Z,19.96
2023-10-30T13:27:18.735Z,19.91
2023-10-30T13:32:21.411Z,19.72
2023-10-30T13:37:23.571Z,19.73
2023-10-30T13:42:25.605Z,19.83
2023-10-30T13:47:27.764Z,19.98
2023-10-30T13:52:29.802Z,19.86
2023-10-30T13:57:32.111Z,19.67
2023-10-30T14:02:34.246Z,19.50
2023-10-30T14:07:37.082Z,19.46
2023-10-30T14:12:39.178Z,19.41
2023-10-30T14:17:41.390Z,19.30
2023-10-30T14:22:43.434Z,19.15
2023-10-30T14:27:45.695Z,18.95
2023-10-30T14:32:48.320Z,18.77
2023-10-30T14:37:50.432Z,18.65
2023-10-30T14:42:52.752Z,18.56
2023-10-30T14:47:55.417Z,18.41
2023-10-30T14:52:57.683Z,18.16
2023-10-30T14:58:00.049Z,17.90
2023-10-30T15:03:04.883Z,17.66
2023-10-30T15:08:06.931Z,17.45
2023-10-30T15:13:09.583Z,17.26
2023-10-30T15:18:11.897Z,17.10
2023-10-30T15:23:14.332Z,16.91
2023-10-30T15:28:16.404Z,16.68
2023-10-30T15:33:19.011Z,16.49
2023-10-30T15:38:21.814Z,16.33
2023-10-30T15:43:23.885Z,16.16
2023-10-30T15:48:25.957Z,16.03
2023-10-30T16:03:40.367Z,15.67
2023-10-30T16:13:48.521Z,15.46
2023-10-30T16:19:15.141Z,15.36
2023-10-30T16:24:16.236Z,15.24
2023-10-30T16:29:18.493Z,15.14
2023-10-30T16:34:20.620Z,15.06
2023-10-30T16:39:22.728Z,14.99
2023-10-30T16:44:25.284Z,14.96
2023-10-30T16:49:27.831Z,14.91
2023-10-30T16:54:29.970Z,14.88
2023-10-30T16:59:32.301Z,14.85
2023-10-30T17:04:34.574Z,14.80
2023-10-30T17:09:36.660Z,14.75
2023-10-30T17:14:39.179Z,14.71
2023-10-30T17:19:41.682Z,14.67
2023-10-30T17:24:43.685Z,14.62
2023-10-30T17:29:47.591Z,14.55
2023-10-30T17:34:51.019Z,14.45
2023-10-30T17:39:55.525Z,14.35
2023-10-30T17:45:04.317Z,14.39
2023-10-30T17:55:31.600Z,14.50
2023-10-30T18:00:33.817Z,14.55
2023-10-30T18:05:35.912Z,14.54
2023-10-30T18:10:38.230Z,14.52
2023-10-30T18:15:40.784Z,14.53
2023-10-30T18:20:44.630Z,14.56
2023-10-30T18:25:46.785Z,14.58
2023-10-30T18:30:51.120Z,14.63
2023-10-30T18:35:53.333Z,14.66
2023-10-30T18:41:02.451Z,14.66
2023-10-30T18:46:04.996Z,14.63
2023-10-30T18:51:07.206Z,14.61
2023-10-30T18:56:14.682Z,14.59
2023-10-30T19:01:17.438Z,14.58
2023-10-30T19:06:19.852Z,14.55
2023-10-30T19:11:22.308Z,14.52
2023-10-30T19:16:24.591Z,14.51
2023-10-30T19:21:27.061Z,14.50
2023-10-30T19:26:29.607Z,14.47
2023-10-30T19:31:32.003Z,14.39
2023-10-30T19:36:34.757Z,14.25
2023-10-30T19:41:37.242Z,14.08
2023-10-30T19:46:41.371Z,13.93
2023-10-30T19:51:52.399Z,13.77
2023-10-30T19:56:59.157Z,13.65
2023-10-30T20:02:01.876Z,13.58
2023-10-30T20:07:04.815Z,13.53
2023-10-30T20:12:07.371Z,13.46
2023-10-30T20:17:11.039Z,13.36
2023-10-30T20:22:13.260Z,13.23
2023-10-30T20:27:15.712Z,13.14
2023-10-30T20:32:19.891Z,13.09
2023-10-30T20:37:21.942Z,13.07
2023-10-30T20:42:25.008Z,12.99
2023-10-30T20:48:26.847Z,12.87
2023-10-30T20:54:48.664Z,12.75
2023-10-30T21:01:10.575Z,12.73
2023-10-30T21:06:32.746Z,12.78
2023-10-30T21:11:34.896Z,12.92
2023-10-30T21:16:37.650Z,13.16
2023-10-30T21:21:39.823Z,13.43
2023-10-30T21:26:41.901Z,13.68
2023-10-30T21:31:44.089Z,13.88
2023-10-30T21:36:46.840Z,14.04
2023-10-30T21:41:49.247Z,14.21
2023-10-30T21:46:51.557Z,14.35
2023-10-30T21:51:53.668Z,14.47
2023-10-30T21:56:55.744Z,14.61
2023-10-30T22:01:57.959Z,14.79
2023-10-30T22:07:03.876Z,14.97
2023-10-30T22:12:06.222Z,15.15
2023-10-30T22:17:08.510Z,15.24
2023-10-30T22:22:10.699Z,15.32
2023-10-30T22:27:12.713Z,15.42
2023-10-30T22:32:14.749Z,15.50
2023-10-30T22:37:17.561Z,15.56
2023-10-30T22:42:20.023Z,15.58
2023-10-30T22:48:21.899Z,15.61
2023-10-30T22:53:44.031Z,15.68
2023-10-30T22:59:45.815Z,15.75
2023-10-30T23:05:08.514Z,15.81
2023-10-30T23:10:10.753Z,15.86
2023-10-30T23:15:12.943Z,15.93
2023-10-30T23:21:14.737Z,16.02
2023-10-30T23:26:36.708Z,16.12
2023-10-30T23:31:39.173Z,16.21
2023-10-30T23:36:41.240Z,16.29
2023-10-30T23:41:43.677Z,16.34
2023-10-30T23:46:47.017Z,16.39
2023-10-30T23:51:49.235Z,16.43
2023-10-30T23:57:34.429Z,16.45
